메인 페이지
METAR-TAF:

METAR-TAF

공항 :

New Iberia, 루이지애나, 미국

위도: 30-01-44N, 경도: 091-53-04W, 고도: 7m

현재 날씨관측

예보는 13분 전, 04:53시(UTC)에 발표되었습니다.
남동6kt
온도 13°C
습도 94%
기압 1021 hPa
시정: 16.1km
맑음

METAR: KARA 220453Z AUTO 14006KT 10SM CLR 13/12 A3014 RMK AO2 SLP207 T01330122

시각: 00:06 (05:06 UTC)

예보

예보는 5 시간 46분 전, 23:20시(UTC)에 발표되었습니다.
예보 대상 시간: 22일 00시부터 22일 24시까지 (UTC)
남남동12kt
시정: 10km
맑음
22일 0100시부터 (UTC)
남남동6kt
시정: 10km
맑음
22일 1400시부터 (UTC)
남남동14kt
시정: 10km
맑음

TAF: KARA 212320Z 2200/2224 16012KT P6SM SKC FM220100 15006KT P6SM SKC FM221400 16014KT P6SM SKC

4,000개 이상의 공항 관측 자료 및 예보 (METAR 및 TAF 보고).

지도상에서 검색 가능한 기상관측소가 노란 점과 빨간 점으로 표시되어 있습니다.

기상관측소 명을 보려면 표시 위로 마우스를 이동하세요.

날씨 관측과 예보를 보려면 클릭하세요.

지도 변경 : 확대하려면 엑스 표시가 있는 녹색 버튼, 축소하려면 빼기 표시가 있는 녹색 버튼, 다음 페이지의 지도를 보려면 녹색 화살표를 클릭하세요.


METAR-TAF: